Time;durP1;ratioP1;P1;durP2;ratioP2;P2;SDS_P1;SDS_P2;PMS_P1;PMS_P2;Temp;Humidity;BMP_temperature;BMP_pressure;BME280_temperature;BME280_humidity;BME280_pressure;Samples;Min_cycle;Max_cycle;Signal;HPM_P1;HPM_P2
2022/12/19 00:00:14;;;;;;;36.83;18.33;;;-4.10;1.00;;;;;;6273006;22;20208;-79
2022/12/19 00:02:41;;;;;;;31.85;18.95;;;-4.10;1.00;;;;;;6283313;22;20216;-80
2022/12/19 00:05:12;;;;;;;31.42;18.15;;;-4.10;1.00;;;;;;6281909;22;20193;-80
2022/12/19 00:07:39;;;;;;;28.45;17.52;;;-4.10;1.00;;;;;;6277827;22;20211;-77
2022/12/19 00:10:12;;;;;;;33.83;18.70;;;-4.10;1.00;;;;;;6289371;22;20875;-80
2022/12/19 00:12:40;;;;;;;32.28;17.48;;;-4.10;1.00;;;;;;6286933;22;20899;-78
2022/12/19 00:15:13;;;;;;;29.65;17.83;;;-4.00;1.00;;;;;;6273092;22;20220;-81
2022/12/19 00:17:40;;;;;;;34.28;18.88;;;-4.00;1.00;;;;;;6253836;22;20256;-78
2022/12/19 00:20:21;;;;;;;29.27;17.27;;;-4.00;1.00;;;;;;6275773;22;20227;-81
2022/12/19 00:22:54;;;;;;;32.35;18.05;;;-4.00;1.00;;;;;;6287624;22;20235;-79
2022/12/19 00:25:21;;;;;;;32.00;17.73;;;-4.00;1.00;;;;;;6289280;22;20200;-80
2022/12/19 00:27:52;;;;;;;29.35;17.20;;;-4.00;1.00;;;;;;6256900;22;20223;-80
2022/12/19 00:30:23;;;;;;;26.80;15.13;;;-4.00;1.00;;;;;;6271286;22;20220;-80
2022/12/19 00:32:52;;;;;;;29.42;16.05;;;-4.00;1.00;;;;;;6262069;22;20196;-79
2022/12/19 00:35:20;;;;;;;34.20;17.60;;;-3.90;1.00;;;;;;6288433;22;20999;-80
2022/12/19 00:37:52;;;;;;;28.85;16.45;;;-3.80;1.00;;;;;;6288059;22;20220;-80
2022/12/19 00:40:20;;;;;;;33.03;17.33;;;-3.80;1.00;;;;;;6270540;22;20219;-80
2022/12/19 00:42:52;;;;;;;31.52;17.80;;;-3.80;1.00;;;;;;6283975;22;20219;-80
2022/12/19 00:45:20;;;;;;;29.85;16.10;;;-3.80;1.00;;;;;;6285105;22;20995;-80
2022/12/19 00:47:48;;;;;;;31.30;17.13;;;-3.70;1.00;;;;;;6283751;22;20315;-80
2022/12/19 00:50:16;;;;;;;31.55;17.35;;;-3.70;1.00;;;;;;6285843;22;20208;-80
2022/12/19 00:52:43;;;;;;;33.25;17.60;;;-3.80;1.00;;;;;;6285263;22;20213;-80
2022/12/19 00:55:10;;;;;;;26.70;18.00;;;-3.70;1.00;;;;;;6281306;22;20240;-81
2022/12/19 00:57:38;;;;;;;29.77;16.45;;;-3.70;1.00;;;;;;6265224;22;20216;-79
2022/12/19 01:00:06;;;;;;;29.02;16.70;;;-3.70;1.00;;;;;;6284331;22;20208;-80
2022/12/19 01:02:33;;;;;;;32.15;16.17;;;-3.70;1.00;;;;;;6282071;22;20978;-79
2022/12/19 01:05:03;;;;;;;27.38;16.63;;;-3.70;1.00;;;;;;6286267;22;20866;-80
2022/12/19 01:07:33;;;;;;;34.47;18.23;;;-3.70;1.00;;;;;;6285884;22;20303;-80
2022/12/19 01:10:00;;;;;;;29.88;17.35;;;-3.70;1.00;;;;;;6284627;22;20212;-80
2022/12/19 01:15:12;;;;;;;28.90;17.70;;;-3.70;1.00;;;;;;6264224;22;20219;-80
2022/12/19 01:17:39;;;;;;;26.77;16.23;;;-3.60;1.00;;;;;;6284253;22;20262;-80
2022/12/19 01:20:09;;;;;;;27.65;16.17;;;-3.70;1.00;;;;;;6285148;22;20209;-80
2022/12/19 01:22:36;;;;;;;27.50;16.25;;;-3.70;1.00;;;;;;6269430;22;20991;-79
2022/12/19 01:25:03;;;;;;;31.80;17.00;;;-3.60;1.00;;;;;;6265062;22;20302;-79
2022/12/19 01:27:31;;;;;;;28.02;17.15;;;-3.70;1.00;;;;;;6283127;22;21020;-79
2022/12/19 01:29:59;;;;;;;30.20;16.20;;;-3.60;1.00;;;;;;6270535;22;20659;-82
2022/12/19 01:32:35;;;;;;;31.60;16.80;;;-3.60;1.00;;;;;;6283987;22;20318;-80
2022/12/19 01:35:03;;;;;;;32.45;17.42;;;-3.70;1.00;;;;;;6282738;22;20211;-81
2022/12/19 01:37:31;;;;;;;29.55;17.13;;;-3.60;1.00;;;;;;6282944;22;20566;-81
2022/12/19 01:39:59;;;;;;;31.60;17.45;;;-3.60;1.00;;;;;;6283559;22;20922;-80
2022/12/19 01:42:26;;;;;;;29.80;16.90;;;-3.60;1.00;;;;;;6283086;22;20220;-80
2022/12/19 01:45:07;;;;;;;29.20;17.20;;;-3.60;1.00;;;;;;6282637;22;20220;-82
2022/12/19 01:47:40;;;;;;;31.58;18.35;;;-3.60;1.00;;;;;;6254210;22;20829;-80
2022/12/19 01:50:13;;;;;;;31.02;17.05;;;-3.60;1.00;;;;;;6258157;22;20274;-81
2022/12/19 01:52:42;;;;;;;29.90;17.80;;;-3.60;1.00;;;;;;6282686;22;20240;-81
2022/12/19 01:55:10;;;;;;;28.77;16.50;;;-3.60;1.00;;;;;;6284893;22;20255;-81
2022/12/19 01:57:39;;;;;;;31.70;18.13;;;-3.60;1.00;;;;;;6286465;22;20240;-80
2022/12/19 02:00:09;;;;;;;31.88;15.48;;;-3.60;1.00;;;;;;6285748;22;20274;-80
2022/12/19 02:02:43;;;;;;;29.50;17.35;;;-3.60;1.00;;;;;;6282473;22;20960;-79
2022/12/19 02:05:13;;;;;;;28.15;16.42;;;-3.50;1.00;;;;;;6285767;22;20956;-79
2022/12/19 02:07:43;;;;;;;29.52;16.48;;;-3.50;1.00;;;;;;6280235;22;20691;-78
2022/12/19 02:10:10;;;;;;;28.67;16.98;;;-3.50;1.00;;;;;;6281563;22;20212;-78
2022/12/19 02:12:40;;;;;;;31.90;17.60;;;-3.50;1.00;;;;;;6268966;22;20850;-78
2022/12/19 02:15:08;;;;;;;30.17;17.42;;;-3.50;1.00;;;;;;6282920;22;20240;-80
2022/12/19 02:17:45;;;;;;;29.63;16.83;;;-3.50;1.00;;;;;;6284057;22;20208;-78
2022/12/19 02:20:53;;;;;;;32.75;17.45;;;-3.50;1.00;;;;;;6282779;22;20223;-78
2022/12/19 02:23:47;;;;;;;37.53;17.00;;;-3.50;1.00;;;;;;6183761;22;20216;-77
2022/12/19 02:26:33;;;;;;;30.05;16.55;;;-3.50;1.00;;;;;;6281264;22;20212;-78
2022/12/19 02:29:19;;;;;;;27.48;16.05;;;-3.40;1.00;;;;;;6272080;22;20795;-78
2022/12/19 02:31:58;;;;;;;32.70;18.58;;;-3.40;1.00;;;;;;6284229;22;20240;-80
2022/12/19 02:34:33;;;;;;;27.42;14.70;;;-3.40;1.00;;;;;;6274343;22;20219;-82
2022/12/19 02:37:04;;;;;;;30.50;17.60;;;-3.40;1.00;;;;;;6269916;22;20220;-77
2022/12/19 02:39:37;;;;;;;34.67;17.63;;;-3.40;1.00;;;;;;6255188;22;20385;-80
2022/12/19 02:42:14;;;;;;;31.98;18.27;;;-3.50;1.00;;;;;;6273017;22;20212;-80
2022/12/19 02:44:51;;;;;;;28.42;16.85;;;-3.50;1.00;;;;;;6246477;22;20684;-80
2022/12/19 02:47:21;;;;;;;29.35;16.35;;;-3.50;1.00;;;;;;6263012;22;20216;-76
2022/12/19 02:49:52;;;;;;;34.40;17.45;;;-3.40;1.00;;;;;;6277594;22;20216;-79
2022/12/19 02:52:43;;;;;;;33.42;17.25;;;-3.50;1.00;;;;;;6274202;22;20239;-80
2022/12/19 02:55:18;;;;;;;30.40;17.48;;;-3.50;1.00;;;;;;6277115;22;20232;-80
2022/12/19 02:58:18;;;;;;;35.47;17.83;;;-3.50;1.00;;;;;;6272137;22;20223;-80
2022/12/19 03:00:57;;;;;;;31.98;16.70;;;-3.40;1.00;;;;;;6254314;22;20266;-77
2022/12/19 03:03:39;;;;;;;34.22;18.85;;;-3.40;1.00;;;;;;6272979;22;20266;-79
2022/12/19 03:06:24;;;;;;;34.63;18.40;;;-3.50;1.00;;;;;;6273208;22;20833;-79
2022/12/19 03:09:02;;;;;;;33.00;18.27;;;-3.40;1.00;;;;;;6267633;22;20216;-77
2022/12/19 03:11:39;;;;;;;33.47;19.50;;;-3.50;1.00;;;;;;6258062;22;20952;-78
2022/12/19 03:14:10;;;;;;;32.53;18.35;;;-3.50;1.00;;;;;;6271530;22;20212;-80
2022/12/19 03:16:38;;;;;;;34.50;20.38;;;-3.40;1.00;;;;;;6256449;22;20204;-79
2022/12/19 03:19:13;;;;;;;31.80;19.23;;;-3.40;1.00;;;;;;6244765;22;20212;-80
2022/12/19 03:21:43;;;;;;;31.08;18.55;;;-3.40;1.00;;;;;;6257730;22;20208;-78
2022/12/19 03:24:16;;;;;;;37.92;19.70;;;-3.40;1.00;;;;;;6274906;22;20200;-78
2022/12/19 03:26:52;;;;;;;35.58;19.10;;;-3.40;1.00;;;;;;6267476;22;20216;-81
2022/12/19 03:29:31;;;;;;;34.00;19.35;;;-3.40;1.00;;;;;;6269853;22;20216;-79
2022/12/19 03:32:04;;;;;;;28.95;17.02;;;-3.40;1.00;;;;;;6285445;22;20219;-81
2022/12/19 03:34:38;;;;;;;36.42;19.67;;;-3.40;1.00;;;;;;6284215;22;20212;-80
2022/12/19 03:37:08;;;;;;;30.95;18.65;;;-3.40;1.00;;;;;;6286760;22;20968;-79
2022/12/19 03:39:36;;;;;;;32.55;17.80;;;-3.40;1.00;;;;;;6261169;22;20223;-80
2022/12/19 03:44:55;;;;;;;39.22;19.48;;;-3.30;1.00;;;;;;6248070;22;20227;-80
2022/12/19 03:47:33;;;;;;;31.67;17.63;;;-3.30;1.00;;;;;;6270322;22;20265;-80
2022/12/19 03:50:03;;;;;;;35.85;20.10;;;-3.30;1.00;;;;;;6277784;22;20212;-80
2022/12/19 03:52:39;;;;;;;36.03;19.98;;;-3.30;1.00;;;;;;6260607;22;20279;-79
2022/12/19 03:55:13;;;;;;;34.30;20.33;;;-3.30;1.00;;;;;;6288183;22;20535;-78
2022/12/19 03:57:45;;;;;;;32.83;19.35;;;-3.30;1.00;;;;;;6269182;22;20208;-80
2022/12/19 04:00:15;;;;;;;34.60;20.05;;;-3.30;1.00;;;;;;6272290;22;20231;-80
2022/12/19 04:02:45;;;;;;;39.35;19.50;;;-3.30;1.00;;;;;;6270683;22;20212;-80
2022/12/19 04:05:22;;;;;;;38.63;21.15;;;-3.30;1.00;;;;;;6247074;22;20208;-82
2022/12/19 04:08:00;;;;;;;33.83;19.60;;;-3.20;1.00;;;;;;6235102;22;20383;-77
2022/12/19 04:10:34;;;;;;;31.20;18.83;;;-3.30;1.00;;;;;;6238808;22;20688;-78
2022/12/19 04:13:13;;;;;;;33.58;19.67;;;-3.20;1.00;;;;;;6251917;22;20208;-79
2022/12/19 04:15:51;;;;;;;39.75;20.05;;;-3.30;1.00;;;;;;6254082;22;20236;-78
2022/12/19 04:18:20;;;;;;;35.65;20.10;;;-3.30;1.00;;;;;;6269137;22;20226;-80
2022/12/19 04:20:58;;;;;;;30.98;19.58;;;-3.30;1.00;;;;;;6283331;22;20256;-79
2022/12/19 04:23:36;;;;;;;33.03;18.33;;;-3.30;1.00;;;;;;6275136;22;20216;-78
2022/12/19 04:26:11;;;;;;;30.00;18.88;;;-3.30;1.00;;;;;;6277272;22;20268;-77
2022/12/19 04:28:41;;;;;;;35.35;20.90;;;-3.30;1.00;;;;;;6260196;22;20238;-77
2022/12/19 04:31:14;;;;;;;30.63;19.02;;;-3.20;1.00;;;;;;6257086;22;20196;-78
2022/12/19 04:33:41;;;;;;;30.30;18.40;;;-3.20;1.00;;;;;;6274276;22;20219;-79
2022/12/19 04:36:15;;;;;;;35.58;20.63;;;-3.30;1.00;;;;;;6274123;22;20218;-78
2022/12/19 04:38:44;;;;;;;33.65;18.58;;;-3.30;1.00;;;;;;6250801;22;20260;-81
2022/12/19 04:41:13;;;;;;;35.78;20.75;;;-3.30;1.00;;;;;;6267556;22;20224;-80
2022/12/19 04:43:40;;;;;;;31.05;18.25;;;-3.30;1.00;;;;;;6254610;22;20291;-78
2022/12/19 04:46:15;;;;;;;32.53;19.25;;;-3.30;1.00;;;;;;6257173;22;20692;-78
2022/12/19 04:48:42;;;;;;;34.95;20.38;;;-3.30;1.00;;;;;;6262732;22;20211;-79
2022/12/19 04:51:16;;;;;;;38.45;23.45;;;-3.20;1.00;;;;;;6262551;22;20263;-80
2022/12/19 04:53:43;;;;;;;39.78;19.23;;;-3.20;1.00;;;;;;6241516;22;20216;-80
2022/12/19 04:56:14;;;;;;;34.88;18.70;;;-3.20;1.00;;;;;;6260422;22;20231;-79
2022/12/19 04:58:42;;;;;;;30.17;17.95;;;-3.30;1.00;;;;;;6259213;22;20216;-80
2022/12/19 05:01:14;;;;;;;31.05;19.38;;;-3.30;1.00;;;;;;6273596;22;20204;-78
2022/12/19 05:03:41;;;;;;;38.15;19.98;;;-3.30;1.00;;;;;;6280395;22;20219;-79
2022/12/19 05:06:20;;;;;;;44.08;19.58;;;-3.20;1.00;;;;;;6277714;22;20209;-77
2022/12/19 05:08:52;;;;;;;33.60;19.60;;;-3.30;1.00;;;;;;6250578;22;20272;-79
2022/12/19 05:11:19;;;;;;;32.58;18.10;;;-3.20;1.00;;;;;;6276254;22;20213;-79
2022/12/19 05:13:51;;;;;;;34.72;19.17;;;-3.30;1.00;;;;;;6290755;22;20998;-78
2022/12/19 05:16:19;;;;;;;33.97;19.17;;;-3.30;1.00;;;;;;6287573;22;20234;-80
2022/12/19 05:18:49;;;;;;;29.02;17.23;;;-3.30;1.00;;;;;;6247595;22;20213;-80
2022/12/19 05:21:20;;;;;;;30.10;17.75;;;-3.30;1.00;;;;;;6273159;22;20212;-79
2022/12/19 05:23:55;;;;;;;30.77;17.75;;;-3.40;1.00;;;;;;6243660;22;20212;-80
2022/12/19 05:26:23;;;;;;;32.05;18.65;;;-3.40;1.00;;;;;;6248240;22;20223;-77
2022/12/19 05:28:51;;;;;;;28.70;15.65;;;-3.30;1.00;;;;;;6283194;22;20232;-78
2022/12/19 05:31:20;;;;;;;33.80;17.77;;;-3.30;1.00;;;;;;6282859;22;20244;-78
2022/12/19 05:33:51;;;;;;;32.67;19.52;;;-3.30;1.00;;;;;;6285772;22;20212;-78
2022/12/19 05:36:20;;;;;;;32.35;18.90;;;-3.30;1.00;;;;;;6285174;22;20212;-78
2022/12/19 05:38:47;;;;;;;31.95;19.05;;;-3.20;1.00;;;;;;6284507;22;20213;-79
2022/12/19 05:41:17;;;;;;;32.47;18.38;;;-3.20;1.00;;;;;;6287195;22;20208;-78
2022/12/19 05:43:58;;;;;;;;;;;;;;;;;;;;;
2022/12/19 05:46:35;;;;;;;34.08;19.23;;;-3.10;1.00;;;;;;6249259;22;40190;-82
2022/12/19 05:49:05;;;;;;;29.13;17.35;;;-3.00;1.00;;;;;;6268864;22;20211;-78
2022/12/19 05:51:34;;;;;;;33.42;18.98;;;-3.00;1.00;;;;;;6289096;22;20188;-85
2022/12/19 05:54:04;;;;;;;30.80;16.40;;;-3.00;1.00;;;;;;6293671;22;20195;-83
2022/12/19 05:56:33;;;;;;;30.73;19.05;;;-3.00;1.00;;;;;;6266391;22;20209;-82
2022/12/19 05:59:07;;;;;;;33.97;18.73;;;-2.90;1.00;;;;;;6292592;22;20212;-83
2022/12/19 06:01:45;;;;;;;37.25;20.50;;;-3.00;1.00;;;;;;6289931;22;20216;-80
2022/12/19 06:04:31;;;;;;;32.25;17.98;;;-3.00;1.00;;;;;;6288923;22;20216;-83
2022/12/19 06:07:06;;;;;;;30.98;17.17;;;-3.00;1.00;;;;;;6272023;22;20204;-84
2022/12/19 06:09:34;;;;;;;33.88;18.15;;;-3.00;1.00;;;;;;6265695;22;20223;-81
2022/12/19 06:12:04;;;;;;;31.85;17.60;;;-3.00;1.00;;;;;;6289751;22;20204;-86
2022/12/19 06:14:34;;;;;;;32.58;19.38;;;-2.90;1.00;;;;;;6277464;22;20252;-83
2022/12/19 06:17:04;;;;;;;38.58;18.20;;;-2.80;1.00;;;;;;6295167;22;20211;-85
2022/12/19 06:19:33;;;;;;;38.72;20.25;;;-2.80;1.00;;;;;;6279044;22;20208;-84
2022/12/19 06:22:12;;;;;;;30.42;18.80;;;-2.80;1.00;;;;;;6281128;22;20200;-86
2022/12/19 06:24:46;;;;;;;33.47;18.73;;;-2.70;1.00;;;;;;6280341;22;20196;-84
2022/12/19 06:27:34;;;;;;;31.73;18.38;;;-2.60;1.00;;;;;;6265783;22;20204;-82
2022/12/19 06:30:05;;;;;;;35.53;19.92;;;-2.70;1.00;;;;;;6293941;22;20219;-82
2022/12/19 06:32:35;;;;;;;30.77;18.40;;;-2.60;1.00;;;;;;6299972;22;20226;-84
2022/12/19 06:35:23;;;;;;;;;;;;;;;;;;;;;
2022/12/19 06:38:06;;;;;;;33.15;20.05;;;-2.50;1.00;;;;;;6272652;22;40346;-82
2022/12/19 06:43:44;;;;;;;32.65;17.85;;;-2.60;1.00;;;;;;6294298;22;20240;-83
2022/12/19 06:46:25;;;;;;;34.72;20.63;;;-2.50;1.00;;;;;;6297215;22;20291;-82
2022/12/19 06:49:06;;;;;;;35.38;20.63;;;-2.60;1.00;;;;;;6279364;22;20200;-82
2022/12/19 06:51:44;;;;;;;34.63;18.15;;;-2.60;1.00;;;;;;6283083;22;20227;-83
2022/12/19 06:54:23;;;;;;;29.02;17.23;;;-2.50;1.00;;;;;;6278703;22;20315;-85
2022/12/19 06:59:34;;;;;;;33.03;18.63;;;-2.40;1.00;;;;;;6276400;22;20258;-85
2022/12/19 07:02:26;;;;;;;33.58;17.90;;;-2.40;1.00;;;;;;6281243;22;20208;-83
2022/12/19 07:05:06;;;;;;;31.60;17.05;;;-2.30;1.00;;;;;;6257427;22;20240;-79
2022/12/19 07:07:44;;;;;;;27.13;15.02;;;-2.30;1.00;;;;;;6293487;22;21024;-83
2022/12/19 07:10:16;;;;;;;33.47;18.15;;;-2.20;1.00;;;;;;6270362;22;21030;-83
2022/12/19 07:12:53;;;;;;;33.88;18.98;;;-2.20;1.00;;;;;;6298306;22;20208;-82
2022/12/19 07:15:24;;;;;;;33.13;20.05;;;-2.20;1.00;;;;;;6293652;22;20204;-79
2022/12/19 07:17:52;;;;;;;32.72;18.23;;;-2.20;1.00;;;;;;6297213;22;20871;-85
2022/12/19 07:20:24;;;;;;;30.98;17.00;;;-2.10;1.00;;;;;;6305216;22;20196;-85
2022/12/19 07:23:11;;;;;;;34.10;18.08;;;-2.10;1.00;;;;;;6279873;22;20212;-82
2022/12/19 07:25:50;;;;;;;26.83;17.60;;;-2.10;1.00;;;;;;6253645;22;20223;-83
2022/12/19 07:28:23;;;;;;;30.90;18.77;;;-2.20;1.00;;;;;;6296014;22;21008;-84
2022/12/19 07:30:53;;;;;;;36.78;17.88;;;-2.10;1.00;;;;;;6294775;22;20215;-85
2022/12/19 07:33:54;;;;;;;31.55;17.25;;;-2.10;1.00;;;;;;6295728;22;20216;-81
2022/12/19 07:36:24;;;;;;;30.13;17.30;;;-2.00;1.00;;;;;;6291797;22;20210;-83
2022/12/19 07:38:51;;;;;;;27.60;17.50;;;-1.90;1.00;;;;;;6267482;22;20223;-82
2022/12/19 07:41:24;;;;;;;31.25;18.42;;;-1.90;1.00;;;;;;6297120;22;20216;-86
2022/12/19 07:43:54;;;;;;;31.25;17.77;;;-1.80;1.00;;;;;;6297320;22;20710;-81
2022/12/19 07:46:26;;;;;;;32.45;16.60;;;-1.80;1.00;;;;;;6293128;22;20180;-83
2022/12/19 07:49:02;;;;;;;35.45;17.65;;;-1.70;1.00;;;;;;6299003;22;20204;-84
2022/12/19 07:51:35;;;;;;;32.58;19.23;;;-1.70;1.00;;;;;;6296252;22;20250;-85
2022/12/19 07:54:06;;;;;;;33.72;19.42;;;-1.70;1.00;;;;;;6296285;22;20203;-85
2022/12/19 07:56:36;;;;;;;29.73;18.25;;;-1.60;1.00;;;;;;6277823;22;20199;-86
2022/12/19 07:59:03;;;;;;;32.88;17.42;;;-1.60;1.00;;;;;;6292767;22;20215;-85
2022/12/19 08:01:36;;;;;;;31.70;17.75;;;-1.60;1.00;;;;;;6276580;22;20964;-83
2022/12/19 08:04:04;;;;;;;32.63;17.70;;;-1.50;1.00;;;;;;6290450;22;20208;-85
2022/12/19 08:06:33;;;;;;;28.52;17.10;;;-1.50;1.00;;;;;;6291475;22;20219;-86
2022/12/19 08:09:06;;;;;;;28.83;16.88;;;-1.40;1.00;;;;;;6295318;22;20210;-84
2022/12/19 08:11:42;;;;;;;34.42;17.25;;;-1.40;1.00;;;;;;6292391;22;20196;-84
2022/12/19 08:14:23;;;;;;;27.23;17.33;;;-1.30;1.00;;;;;;6296319;22;20318;-85
2022/12/19 08:17:06;;;;;;;30.83;17.92;;;-1.20;1.00;;;;;;6277603;22;20231;-85
2022/12/19 08:19:33;;;;;;;29.55;17.40;;;-1.10;1.00;;;;;;6291016;22;20755;-84
2022/12/19 08:22:05;;;;;;;31.55;16.83;;;-1.20;1.00;;;;;;6295164;22;20216;-84
2022/12/19 08:24:32;;;;;;;32.53;18.90;;;-1.10;1.00;;;;;;6292898;22;20212;-84
2022/12/19 08:27:24;;;;;;;30.38;16.80;;;-1.10;1.00;;;;;;6294657;22;20223;-85
2022/12/19 08:29:53;;;;;;;29.95;16.23;;;-1.10;1.00;;;;;;6294510;22;20220;-86
2022/12/19 08:32:24;;;;;;;26.58;16.48;;;-1.10;1.00;;;;;;6292610;22;20333;-85
2022/12/19 08:34:56;;;;;;;26.83;16.38;;;-1.10;1.00;;;;;;6266146;22;20224;-84
2022/12/19 08:37:25;;;;;;;28.35;16.50;;;-0.90;1.00;;;;;;6291532;22;20270;-86
2022/12/19 08:39:54;;;;;;;31.00;17.10;;;-0.80;1.00;;;;;;6294070;22;20224;-85
2022/12/19 08:42:25;;;;;;;33.83;17.70;;;-0.70;1.00;;;;;;6295232;22;20209;-86
2022/12/19 08:44:53;;;;;;;32.13;18.02;;;-0.60;1.00;;;;;;6279351;22;20224;-86
2022/12/19 08:47:33;;;;;;;29.00;15.77;;;-0.60;1.00;;;;;;6293000;22;20212;-84
2022/12/19 08:50:06;;;;;;;32.63;17.90;;;-0.70;1.00;;;;;;6291770;22;20281;-86
2022/12/19 08:52:43;;;;;;;27.85;14.90;;;-0.60;1.00;;;;;;6294281;22;20286;-86
2022/12/19 08:55:15;;;;;;;30.02;16.45;;;-0.60;1.00;;;;;;6277861;22;20324;-85
2022/12/19 08:58:13;;;;;;;34.17;18.83;;;-0.60;1.00;;;;;;6276033;22;20204;-86
2022/12/19 09:00:48;;;;;;;30.58;16.15;;;-0.50;1.00;;;;;;6291098;22;20213;-84
2022/12/19 09:03:15;;;;;;;35.45;18.60;;;-0.60;1.00;;;;;;6292993;22;20203;-83
2022/12/19 09:05:46;;;;;;;30.80;16.65;;;-0.50;1.00;;;;;;6291408;22;20212;-87
2022/12/19 09:08:25;;;;;;;30.52;16.65;;;-0.50;1.00;;;;;;6292647;22;20668;-85
2022/12/19 09:11:04;;;;;;;33.78;17.42;;;-0.50;1.00;;;;;;6289991;22;20243;-86
2022/12/19 09:13:52;;;;;;;31.60;17.38;;;-0.60;1.00;;;;;;6290161;22;20310;-83
2022/12/19 09:16:31;;;;;;;28.13;16.45;;;-0.50;1.00;;;;;;6293920;22;20204;-82
2022/12/19 09:19:25;;;;;;;27.27;16.42;;;-0.40;1.00;;;;;;6277875;22;20269;-84
2022/12/19 09:21:54;;;;;;;34.08;17.30;;;-0.50;1.00;;;;;;6274901;22;20213;-87
2022/12/19 09:24:31;;;;;;;28.60;16.23;;;-0.40;1.00;;;;;;6288735;22;20200;-84
2022/12/19 09:27:04;;;;;;;34.42;17.98;;;-0.40;1.00;;;;;;6275056;22;20192;-86
2022/12/19 09:29:36;;;;;;;28.23;16.92;;;-0.30;1.00;;;;;;6274061;22;20211;-85
2022/12/19 09:32:06;;;;;;;27.52;16.90;;;-0.30;1.00;;;;;;6290539;22;20267;-83
2022/12/19 09:34:37;;;;;;;33.75;18.70;;;-0.20;1.00;;;;;;6291003;22;20239;-86
2022/12/19 09:37:05;;;;;;;30.55;16.70;;;-0.10;1.00;;;;;;6294237;22;20208;-85
2022/12/19 09:39:35;;;;;;;30.10;16.05;;;0.00;1.00;;;;;;6291585;22;20312;-83
2022/12/19 09:42:31;;;;;;;33.42;17.55;;;0.00;1.00;;;;;;6293795;22;20243;-84
2022/12/19 09:45:35;;;;;;;31.17;17.63;;;0.20;1.00;;;;;;6275350;22;20266;-86
2022/12/19 09:48:15;;;;;;;29.92;17.85;;;0.20;1.00;;;;;;6291092;22;20215;-86
2022/12/19 09:50:53;;;;;;;31.33;18.25;;;0.30;1.00;;;;;;6292492;22;20247;-85
2022/12/19 09:53:27;;;;;;;28.77;16.13;;;0.30;1.00;;;;;;6293234;22;20215;-83
2022/12/19 09:55:56;;;;;;;28.38;16.20;;;0.40;1.00;;;;;;6290801;22;20265;-82
2022/12/19 09:58:31;;;;;;;31.65;17.50;;;0.50;1.00;;;;;;6292908;22;20703;-81
2022/12/19 10:01:08;;;;;;;26.83;16.30;;;0.40;1.00;;;;;;6289331;22;20910;-83
2022/12/19 10:03:39;;;;;;;26.42;16.63;;;0.40;1.00;;;;;;6292441;22;20239;-84
2022/12/19 10:06:15;;;;;;;30.42;17.23;;;0.40;1.00;;;;;;6292294;22;20212;-85
2022/12/19 10:08:44;;;;;;;30.65;18.02;;;0.60;1.00;;;;;;6271293;22;20208;-81
2022/12/19 10:11:34;;;;;;;31.05;17.60;;;0.70;1.00;;;;;;6265448;22;20209;-82
2022/12/19 10:14:25;;;;;;;30.75;16.83;;;0.90;1.00;;;;;;6293516;22;20219;-82
2022/12/19 10:17:15;;;;;;;27.83;17.05;;;1.00;1.00;;;;;;6288109;22;20212;-81
2022/12/19 10:20:08;;;;;;;32.42;16.98;;;1.00;1.00;;;;;;6267019;22;20966;-83
2022/12/19 10:22:51;;;;;;;26.10;17.75;;;1.10;1.00;;;;;;6288469;22;20224;-82
2022/12/19 10:25:36;;;;;;;34.15;19.17;;;1.20;1.00;;;;;;6286802;22;20932;-83
2022/12/19 10:28:24;;;;;;;31.00;17.40;;;1.20;1.00;;;;;;6289145;22;20204;-84
2022/12/19 10:31:08;;;;;;;26.45;15.32;;;1.30;1.00;;;;;;6288387;22;20215;-78
2022/12/19 10:33:45;;;;;;;27.98;16.88;;;1.30;1.00;;;;;;6291248;22;20217;-83
2022/12/19 10:36:12;;;;;;;32.83;16.85;;;1.40;1.00;;;;;;6263789;22;20339;-77
2022/12/19 10:39:05;;;;;;;27.67;16.98;;;1.60;1.00;;;;;;6291781;22;20218;-82
2022/12/19 10:41:34;;;;;;;30.30;17.00;;;1.50;1.00;;;;;;6295411;22;20218;-83
2022/12/19 10:44:06;;;;;;;30.83;17.27;;;1.50;1.00;;;;;;6291193;22;20215;-78
2022/12/19 10:46:44;;;;;;;28.95;16.23;;;1.50;1.00;;;;;;6290187;22;20232;-79
2022/12/19 10:49:29;;;;;;;26.35;16.30;;;1.50;1.00;;;;;;6290265;22;20240;-79
2022/12/19 10:52:07;;;;;;;28.45;16.88;;;1.60;1.00;;;;;;6289867;22;20243;-77
2022/12/19 10:54:48;;;;;;;30.70;17.17;;;1.70;1.00;;;;;;6274243;22;20255;-82
2022/12/19 10:57:25;;;;;;;33.72;17.95;;;2.00;1.00;;;;;;6294566;22;20683;-83
2022/12/19 10:59:56;;;;;;;30.75;17.25;;;2.20;1.00;;;;;;6289847;22;21001;-78
2022/12/19 11:02:35;;;;;;;33.38;18.02;;;2.30;1.00;;;;;;6291847;22;20219;-79
2022/12/19 11:05:24;;;;;;;29.65;17.63;;;2.40;1.00;;;;;;6292837;22;20247;-83
2022/12/19 11:08:13;;;;;;;31.98;17.42;;;2.50;1.00;;;;;;6256790;22;20209;-78
2022/12/19 11:10:47;;;;;;;25.58;15.93;;;2.30;1.00;;;;;;6258474;22;20669;-79
2022/12/19 11:13:44;;;;;;;27.83;18.48;;;2.20;1.00;;;;;;6264253;22;20984;-83
2022/12/19 11:16:12;;;;;;;31.50;17.33;;;2.20;1.00;;;;;;6234065;22;20217;-83
2022/12/19 11:18:45;;;;;;;29.35;19.00;;;2.20;1.00;;;;;;6262663;22;20224;-82
2022/12/19 11:21:23;;;;;;;31.55;17.02;;;2.10;1.00;;;;;;6261725;22;20228;-83
2022/12/19 11:23:55;;;;;;;25.35;15.00;;;2.10;1.00;;;;;;6257436;22;20240;-79
2022/12/19 11:26:30;;;;;;;32.00;17.10;;;2.00;1.00;;;;;;6244064;22;20252;-78
2022/12/19 11:29:04;;;;;;;29.80;17.92;;;1.90;1.00;;;;;;6256584;22;20218;-78
2022/12/19 11:31:31;;;;;;;29.70;17.60;;;1.90;1.00;;;;;;6256793;22;20212;-78
2022/12/19 11:34:15;;;;;;;27.92;17.92;;;1.80;1.00;;;;;;6258380;22;20223;-77
2022/12/19 11:36:52;;;;;;;33.70;18.08;;;1.70;1.00;;;;;;6256898;22;20685;-78
2022/12/19 11:39:28;;;;;;;27.80;17.38;;;1.60;1.00;;;;;;6258716;22;20747;-78
2022/12/19 11:42:04;;;;;;;30.80;18.40;;;1.60;1.00;;;;;;6231110;22;20221;-78
2022/12/19 11:44:37;;;;;;;32.80;18.90;;;1.50;1.00;;;;;;6256272;22;20303;-78
2022/12/19 11:47:22;;;;;;;29.10;17.65;;;1.50;1.00;;;;;;6259790;22;20221;-78
2022/12/19 11:50:02;;;;;;;27.20;17.80;;;1.50;1.00;;;;;;6258546;22;20279;-78
2022/12/19 11:52:43;;;;;;;26.80;16.35;;;1.40;1.00;;;;;;6256933;22;20209;-78
2022/12/19 11:55:24;;;;;;;30.67;16.95;;;1.40;1.00;;;;;;6257003;22;20209;-77
2022/12/19 11:57:51;;;;;;;33.17;17.65;;;1.40;1.00;;;;;;6217086;22;20256;-82
2022/12/19 12:00:23;;;;;;;30.60;18.45;;;1.30;1.00;;;;;;6256929;22;20212;-77
2022/12/19 12:03:35;;;;;;;30.30;18.83;;;1.30;1.00;;;;;;6255569;22;20684;-80
2022/12/19 12:06:12;;;;;;;28.17;17.33;;;1.30;1.00;;;;;;6257984;22;20216;-77
2022/12/19 12:09:03;;;;;;;31.98;19.17;;;1.30;1.00;;;;;;6228399;22;20212;-77
2022/12/19 12:11:43;;;;;;;28.88;18.27;;;1.30;1.00;;;;;;6257111;22;20217;-79
2022/12/19 12:14:24;;;;;;;30.40;19.50;;;1.30;1.00;;;;;;6239641;22;21358;-78
2022/12/19 12:17:25;;;;;;;28.48;17.40;;;1.30;1.00;;;;;;6254451;22;20209;-78
2022/12/19 12:20:17;;;;;;;35.47;19.17;;;1.20;1.00;;;;;;6256671;22;20216;-78
2022/12/19 12:23:20;;;;;;;30.15;16.75;;;1.20;1.00;;;;;;6255950;22;20209;-78
2022/12/19 12:26:05;;;;;;;30.25;17.10;;;1.20;1.00;;;;;;6254614;22;20208;-80
2022/12/19 12:29:04;;;;;;;33.53;18.27;;;1.30;1.00;;;;;;6243005;22;20205;-79
2022/12/19 12:31:51;;;;;;;29.90;17.75;;;1.30;1.00;;;;;;6256443;22;20212;-81
2022/12/19 12:34:51;;;;;;;34.88;19.50;;;1.30;1.00;;;;;;6224587;22;20271;-77
2022/12/19 12:37:33;;;;;;;28.17;17.95;;;1.30;1.00;;;;;;6255849;22;20213;-77
2022/12/19 12:40:27;;;;;;;33.10;19.05;;;1.30;1.00;;;;;;6262879;22;20213;-77
2022/12/19 12:43:14;;;;;;;33.38;19.63;;;1.30;1.00;;;;;;6233286;22;20221;-82
2022/12/19 12:45:47;;;;;;;33.22;20.40;;;1.30;1.00;;;;;;6259737;22;20228;-80
2022/12/19 12:48:24;;;;;;;34.28;18.70;;;1.40;1.00;;;;;;6259410;22;20279;-76
2022/12/19 12:50:52;;;;;;;27.48;16.95;;;1.40;1.00;;;;;;6259061;22;20237;-80
2022/12/19 12:53:28;;;;;;;30.15;18.27;;;1.40;1.00;;;;;;6257752;22;20201;-81
2022/12/19 12:55:57;;;;;;;35.10;18.35;;;1.50;1.00;;;;;;6263135;22;20774;-77
2022/12/19 12:59:06;;;;;;;30.58;17.48;;;1.50;1.00;;;;;;6261567;22;20208;-83
2022/12/19 13:01:43;;;;;;;31.08;17.75;;;1.50;1.00;;;;;;6234373;22;21040;-77
2022/12/19 13:04:27;;;;;;;31.27;18.25;;;1.50;1.00;;;;;;6263047;22;20209;-78
2022/12/19 13:07:24;;;;;;;28.52;16.92;;;1.60;1.00;;;;;;6232747;22;20213;-79
2022/12/19 13:10:07;;;;;;;25.85;15.23;;;1.60;1.00;;;;;;6235593;22;20217;-83
2022/12/19 13:13:08;;;;;;;30.27;18.65;;;1.70;1.00;;;;;;6262168;22;20217;-78
2022/12/19 13:15:45;;;;;;;31.95;17.90;;;1.70;1.00;;;;;;6246280;22;20296;-77
2022/12/19 13:19:04;;;;;;;31.77;18.13;;;1.70;1.00;;;;;;6260835;22;20232;-77
2022/12/19 13:22:25;;;;;;;29.90;18.00;;;1.70;1.00;;;;;;6261678;22;20684;-78
2022/12/19 13:25:03;;;;;;;31.52;18.00;;;1.70;1.00;;;;;;6252789;22;20213;-77
2022/12/19 13:27:42;;;;;;;30.08;18.83;;;1.80;1.00;;;;;;6261261;22;20212;-77
2022/12/19 13:30:17;;;;;;;32.05;18.02;;;1.80;1.00;;;;;;6260781;22;20201;-77
2022/12/19 13:33:12;;;;;;;27.77;18.17;;;1.80;1.00;;;;;;6264306;22;20207;-79
2022/12/19 13:35:46;;;;;;;28.05;17.25;;;1.80;1.00;;;;;;6237545;22;20209;-76
2022/12/19 13:38:25;;;;;;;29.50;17.80;;;1.80;1.00;;;;;;6265862;22;20197;-82